createdAt,value
2019-01-31T00:00:35.515Z,15.30
2019-01-31T00:03:40.544Z,17.50
2019-01-31T00:06:48.638Z,17.03
2019-01-31T00:09:40.347Z,17.63
2019-01-31T00:12:44.914Z,18.23
2019-01-31T00:15:53.904Z,20.75
2019-01-31T00:18:55.771Z,20.43
2019-01-31T00:22:01.967Z,17.73
2019-01-31T00:24:39.821Z,14.20
2019-01-31T00:27:52.642Z,17.40
2019-01-31T00:30:35.974Z,18.33
2019-01-31T00:33:46.854Z,16.17
2019-01-31T00:36:40.617Z,15.87
2019-01-31T00:39:40.946Z,16.13
2019-01-31T00:42:33.218Z,18.00
2019-01-31T00:45:48.841Z,19.97
2019-01-31T00:48:39.901Z,17.50
2019-01-31T00:51:33.563Z,18.93
2019-01-31T00:54:20.286Z,19.67
2019-01-31T00:57:19.024Z,16.57
2019-01-31T01:00:26.459Z,17.30
2019-01-31T01:03:46.198Z,20.17
2019-01-31T01:06:25.558Z,23.43
2019-01-31T01:09:44.935Z,28.37
2019-01-31T01:12:51.228Z,27.67
2019-01-31T01:16:04.638Z,32.50
2019-01-31T01:18:42.338Z,29.60
2019-01-31T01:21:42.322Z,30.53
2019-01-31T01:24:33.586Z,29.53
2019-01-31T01:27:32.504Z,30.07
2019-01-31T01:30:49.462Z,35.90
2019-01-31T01:33:47.505Z,30.80
2019-01-31T01:36:40.842Z,29.80
2019-01-31T01:39:51.235Z,28.63
2019-01-31T01:42:43.833Z,28.83
2019-01-31T01:45:59.420Z,33.20
2019-01-31T01:48:40.716Z,34.20
2019-01-31T01:51:34.495Z,39.25
2019-01-31T01:54:48.325Z,35.68
2019-01-31T01:58:00.679Z,33.60
2019-01-31T02:01:23.397Z,29.03
2019-01-31T02:04:22.892Z,30.73
2019-01-31T02:07:23.465Z,31.23
2019-01-31T02:10:55.669Z,28.73
2019-01-31T02:13:51.573Z,28.17
2019-01-31T02:16:44.391Z,27.87
2019-01-31T02:19:58.045Z,30.40
2019-01-31T02:22:46.280Z,34.50
2019-01-31T02:25:25.900Z,31.97
2019-01-31T02:28:38.255Z,33.33
2019-01-31T02:31:41.323Z,33.97
2019-01-31T02:34:57.214Z,34.33
2019-01-31T02:37:58.397Z,36.07
2019-01-31T02:40:45.295Z,37.23
2019-01-31T02:43:43.025Z,40.30
2019-01-31T02:47:07.832Z,33.10
2019-01-31T02:50:26.673Z,31.63
2019-01-31T02:53:21.425Z,35.70
2019-01-31T02:56:14.261Z,37.47
2019-01-31T02:59:04.460Z,37.57
2019-01-31T03:02:10.900Z,39.80
2019-01-31T03:05:10.830Z,40.17
2019-01-31T03:08:26.703Z,49.73
2019-01-31T03:11:17.845Z,49.67
2019-01-31T03:14:14.294Z,42.73
2019-01-31T03:17:15.671Z,46.90
2019-01-31T03:20:24.062Z,43.97
2019-01-31T03:23:29.257Z,47.83
2019-01-31T03:26:36.153Z,46.97
2019-01-31T03:29:59.965Z,49.63
2019-01-31T03:32:46.041Z,64.67
2019-01-31T03:36:05.739Z,57.03
2019-01-31T03:38:52.772Z,50.03
2019-01-31T03:42:03.220Z,57.10
2019-01-31T03:45:05.665Z,56.77
2019-01-31T03:48:15.084Z,59.17
2019-01-31T03:50:59.484Z,58.20
2019-01-31T03:54:05.952Z,56.57
2019-01-31T03:57:08.027Z,62.07
2019-01-31T03:59:55.437Z,59.40
2019-01-31T04:02:57.031Z,63.63
2019-01-31T04:05:53.467Z,60.63
2019-01-31T04:08:22.312Z,60.93
2019-01-31T04:10:51.171Z,63.17
2019-01-31T04:13:20.041Z,60.27
2019-01-31T04:15:48.900Z,64.03
2019-01-31T04:18:17.769Z,59.43
2019-01-31T04:20:46.641Z,60.37
2019-01-31T04:23:15.517Z,69.67
2019-01-31T04:25:44.396Z,64.67
2019-01-31T04:28:13.282Z,60.40
2019-01-31T04:30:42.145Z,57.90
2019-01-31T04:33:11.024Z,60.67
2019-01-31T04:35:39.915Z,59.63
2019-01-31T04:38:08.807Z,59.47
2019-01-31T04:40:37.718Z,54.07
2019-01-31T04:43:06.611Z,67.67
2019-01-31T04:45:35.496Z,63.37
2019-01-31T04:48:04.371Z,65.23
2019-01-31T04:50:33.286Z,67.43
2019-01-31T04:53:02.174Z,62.83
2019-01-31T04:55:31.035Z,58.40
2019-01-31T04:57:59.924Z,63.50
2019-01-31T05:00:28.805Z,60.00
2019-01-31T05:02:57.652Z,59.93
2019-01-31T05:05:26.525Z,63.63
2019-01-31T05:07:55.411Z,67.27
2019-01-31T05:10:24.274Z,60.17
2019-01-31T05:12:53.214Z,63.93
2019-01-31T05:15:22.067Z,76.57
2019-01-31T05:17:50.939Z,65.57
2019-01-31T05:20:19.823Z,62.93
2019-01-31T05:22:48.669Z,60.63
2019-01-31T05:25:17.555Z,65.33
2019-01-31T05:27:46.660Z,62.87
2019-01-31T05:30:16.015Z,66.03
2019-01-31T05:32:44.919Z,61.23
2019-01-31T05:35:13.824Z,72.30
2019-01-31T05:37:42.718Z,71.60
2019-01-31T05:40:13.355Z,62.87
2019-01-31T05:42:42.246Z,59.83
2019-01-31T05:45:12.937Z,64.77
2019-01-31T05:47:41.794Z,60.67
2019-01-31T05:50:13.097Z,59.53
2019-01-31T05:52:42.005Z,59.97
2019-01-31T05:55:10.913Z,79.93
2019-01-31T05:57:39.805Z,71.00
2019-01-31T06:00:14.493Z,64.47
2019-01-31T06:02:43.391Z,66.33
2019-01-31T06:05:12.277Z,61.90
2019-01-31T06:07:41.169Z,58.73
2019-01-31T06:10:10.317Z,59.07
2019-01-31T06:12:39.159Z,59.60
2019-01-31T06:15:10.925Z,60.67
2019-01-31T06:17:39.816Z,60.57
2019-01-31T06:20:10.218Z,63.90
2019-01-31T06:22:39.113Z,62.30
2019-01-31T06:25:08.003Z,66.37
2019-01-31T06:27:36.894Z,72.57
2019-01-31T06:30:06.424Z,74.23
2019-01-31T06:32:35.290Z,63.60
2019-01-31T06:35:04.718Z,71.23
2019-01-31T06:37:33.602Z,78.50
2019-01-31T06:40:02.482Z,69.73
2019-01-31T06:42:31.428Z,68.73
2019-01-31T06:45:00.314Z,81.53
2019-01-31T06:47:29.165Z,72.83
2019-01-31T06:49:58.033Z,66.40
2019-01-31T06:52:26.929Z,68.67
2019-01-31T06:54:55.826Z,71.70
2019-01-31T06:57:24.685Z,74.97
2019-01-31T06:59:53.644Z,73.97
2019-01-31T07:02:22.499Z,70.10
2019-01-31T07:04:51.404Z,71.07
2019-01-31T07:07:20.287Z,66.27
2019-01-31T07:09:49.190Z,71.43
2019-01-31T07:12:18.083Z,74.33
2019-01-31T07:14:46.944Z,74.57
2019-01-31T07:17:18.330Z,73.57
2019-01-31T07:19:44.746Z,85.97
2019-01-31T07:22:13.628Z,72.73
2019-01-31T07:24:42.519Z,73.13
2019-01-31T07:27:11.406Z,71.13
2019-01-31T07:29:40.276Z,74.10
2019-01-31T07:32:09.211Z,94.07
2019-01-31T07:34:38.079Z,79.90
2019-01-31T07:37:07.001Z,77.17
2019-01-31T07:39:35.939Z,77.97
2019-01-31T07:42:04.829Z,81.97
2019-01-31T07:44:33.724Z,75.57
2019-01-31T07:47:02.572Z,78.60
2019-01-31T07:49:31.454Z,78.50
2019-01-31T07:52:00.323Z,74.40
2019-01-31T07:54:29.219Z,77.77
2019-01-31T07:56:58.088Z,76.67
2019-01-31T07:59:26.967Z,77.03
2019-01-31T08:01:55.891Z,79.17
2019-01-31T08:04:24.771Z,76.33
2019-01-31T08:06:53.674Z,70.50
2019-01-31T08:09:22.541Z,91.10
2019-01-31T08:11:55.086Z,75.57
2019-01-31T08:14:21.780Z,82.97
2019-01-31T08:16:50.665Z,79.83
2019-01-31T08:19:19.551Z,80.40
2019-01-31T08:21:48.457Z,78.07
2019-01-31T08:24:17.343Z,76.13
2019-01-31T08:26:46.203Z,84.07
2019-01-31T08:29:15.093Z,84.87
2019-01-31T08:31:44.007Z,73.17
2019-01-31T08:34:12.884Z,80.03
2019-01-31T08:36:41.908Z,77.40
2019-01-31T08:39:10.694Z,71.13
2019-01-31T08:41:40.620Z,71.00
2019-01-31T08:44:09.484Z,77.37
2019-01-31T08:46:38.341Z,74.63
2019-01-31T08:49:07.442Z,78.63
2019-01-31T08:51:36.211Z,68.73
2019-01-31T08:54:05.267Z,65.73
2019-01-31T08:56:34.176Z,65.57
2019-01-31T08:59:03.077Z,70.07
2019-01-31T09:01:31.983Z,76.93
2019-01-31T09:04:00.885Z,70.03
2019-01-31T09:06:29.762Z,68.57
2019-01-31T09:08:58.618Z,68.63
2019-01-31T09:11:27.486Z,68.63
2019-01-31T09:13:56.371Z,69.23
2019-01-31T09:16:25.229Z,70.93
2019-01-31T09:18:54.105Z,62.53
2019-01-31T09:21:35.124Z,58.93
2019-01-31T09:24:26.568Z,58.10
2019-01-31T09:27:34.274Z,73.65
2019-01-31T09:30:39.399Z,68.90
2019-01-31T09:33:52.004Z,60.20
2019-01-31T09:37:02.791Z,62.67
2019-01-31T09:40:09.637Z,66.33
2019-01-31T09:43:10.012Z,64.93
2019-01-31T09:46:26.458Z,59.47
2019-01-31T09:49:39.476Z,54.47
2019-01-31T09:52:49.784Z,59.13
2019-01-31T09:55:43.562Z,63.50
2019-01-31T09:58:47.372Z,84.47
2019-01-31T10:01:56.578Z,67.10
2019-01-31T10:04:49.969Z,64.03
2019-01-31T10:07:50.870Z,69.33
2019-01-31T10:11:00.884Z,65.67
2019-01-31T10:13:58.538Z,65.80
2019-01-31T10:16:36.216Z,60.13
2019-01-31T10:19:42.901Z,57.47
2019-01-31T10:22:36.778Z,61.97
2019-01-31T10:25:43.447Z,66.75
2019-01-31T10:28:54.348Z,63.27
2019-01-31T10:31:46.783Z,57.03
2019-01-31T10:34:51.436Z,73.87
2019-01-31T10:37:37.688Z,74.12
2019-01-31T10:40:38.670Z,65.60
2019-01-31T10:43:42.375Z,73.00
2019-01-31T10:46:26.396Z,66.33
2019-01-31T10:49:37.613Z,71.23
2019-01-31T10:52:44.487Z,57.07
2019-01-31T10:55:49.309Z,57.60
2019-01-31T10:58:42.877Z,56.20
2019-01-31T11:01:53.461Z,52.13
2019-01-31T11:04:47.955Z,64.37
2019-01-31T11:07:42.415Z,52.50
2019-01-31T11:10:39.222Z,53.37
2019-01-31T11:13:46.629Z,52.87
2019-01-31T11:16:29.718Z,52.50
2019-01-31T11:19:52.364Z,70.13
2019-01-31T11:23:08.020Z,49.27
2019-01-31T11:26:09.909Z,51.73
2019-01-31T11:29:09.656Z,51.90
2019-01-31T11:32:47.698Z,54.90
2019-01-31T11:35:58.259Z,51.97
2019-01-31T11:39:21.658Z,50.67
2019-01-31T11:42:26.292Z,54.30
2019-01-31T11:45:31.102Z,55.73
2019-01-31T11:48:28.208Z,54.00
2019-01-31T11:51:48.480Z,57.20
2019-01-31T11:54:26.828Z,56.17
2019-01-31T11:57:32.611Z,52.57
2019-01-31T12:00:01.536Z,60.63
2019-01-31T12:02:30.394Z,54.53
2019-01-31T12:04:59.273Z,50.17
2019-01-31T12:07:28.144Z,53.30
2019-01-31T12:09:56.990Z,53.43
2019-01-31T12:12:25.892Z,51.03
2019-01-31T12:14:54.764Z,52.07
2019-01-31T12:17:23.667Z,49.83
2019-01-31T12:19:52.579Z,55.40
2019-01-31T12:22:21.445Z,54.33
2019-01-31T12:24:50.297Z,47.63
2019-01-31T12:27:19.193Z,56.10
2019-01-31T12:29:48.083Z,49.60
2019-01-31T12:32:16.943Z,46.77
2019-01-31T12:34:45.860Z,47.90
2019-01-31T12:37:14.660Z,51.30
2019-01-31T12:39:43.540Z,50.27
2019-01-31T12:42:12.387Z,57.07
2019-01-31T12:44:41.285Z,55.73
2019-01-31T12:47:10.163Z,51.63
2019-01-31T12:49:39.037Z,47.47
2019-01-31T12:52:07.917Z,49.57
2019-01-31T12:54:36.841Z,47.03
2019-01-31T12:57:05.812Z,49.97
2019-01-31T12:59:34.691Z,46.70
2019-01-31T13:02:03.602Z,48.20
2019-01-31T13:04:33.410Z,46.80
2019-01-31T19:06:03.396Z,37.77
2019-01-31T19:08:32.407Z,37.17
2019-01-31T19:11:01.551Z,36.57
2019-01-31T19:13:30.694Z,36.47
2019-01-31T19:16:05.450Z,39.47
2019-01-31T19:18:28.958Z,35.97
2019-01-31T19:20:58.114Z,37.13
2019-01-31T19:23:27.275Z,35.93
2019-01-31T19:25:56.391Z,38.90
2019-01-31T19:28:25.444Z,36.67
2019-01-31T19:30:54.565Z,39.97
2019-01-31T19:33:23.706Z,38.33
2019-01-31T19:35:52.775Z,37.97
2019-01-31T19:38:24.123Z,41.70
2019-01-31T19:40:53.248Z,37.30
2019-01-31T19:43:22.359Z,41.40
2019-01-31T19:45:52.044Z,39.03
2019-01-31T19:48:21.128Z,39.97
2019-01-31T19:50:50.210Z,42.57
2019-01-31T19:53:19.357Z,41.93
2019-01-31T19:55:51.291Z,43.10
2019-01-31T19:58:20.360Z,38.77
2019-01-31T20:00:49.423Z,41.03
2019-01-31T20:03:18.435Z,44.50
2019-01-31T20:05:47.502Z,42.57
2019-01-31T20:08:22.069Z,44.10
2019-01-31T20:10:51.221Z,44.90
2019-01-31T20:13:20.301Z,44.47
2019-01-31T20:15:49.322Z,44.40
2019-01-31T20:18:18.441Z,46.30
2019-01-31T20:20:47.497Z,46.97
2019-01-31T20:23:19.323Z,48.80
2019-01-31T20:25:48.330Z,46.53
2019-01-31T20:28:17.337Z,47.23
2019-01-31T20:30:46.353Z,46.07
2019-01-31T20:33:15.437Z,48.17
2019-01-31T20:35:44.562Z,47.10
2019-01-31T20:38:13.618Z,46.73
2019-01-31T20:40:43.262Z,43.10
2019-01-31T20:43:12.383Z,44.37
2019-01-31T20:45:41.593Z,52.62
2019-01-31T20:48:10.623Z,47.33
2019-01-31T20:50:41.186Z,40.23
2019-01-31T20:53:10.394Z,45.17
2019-01-31T20:55:39.598Z,42.47
2019-01-31T20:58:08.853Z,46.03
2019-01-31T21:00:40.275Z,42.60
2019-01-31T21:03:09.512Z,44.20
2019-01-31T21:05:42.051Z,41.07
2019-01-31T21:08:12.200Z,42.63
2019-01-31T21:10:44.151Z,41.47
2019-01-31T21:13:13.335Z,38.70
2019-01-31T21:15:42.549Z,42.00
2019-01-31T21:18:11.509Z,45.50
2019-01-31T21:20:40.677Z,43.03
2019-01-31T21:23:10.108Z,51.42
2019-01-31T21:25:39.209Z,47.83
2019-01-31T21:28:08.308Z,49.63
2019-01-31T21:30:41.482Z,43.07
2019-01-31T21:33:10.562Z,45.10
2019-01-31T21:35:39.740Z,44.33
2019-01-31T21:38:08.883Z,44.40
2019-01-31T21:40:40.711Z,43.50
2019-01-31T21:43:09.900Z,44.30
2019-01-31T21:45:39.018Z,47.73
2019-01-31T21:48:09.450Z,45.87
2019-01-31T21:50:38.529Z,44.77
2019-01-31T21:53:07.602Z,48.40
2019-01-31T21:55:36.763Z,48.93
2019-01-31T21:58:06.290Z,44.30
2019-01-31T22:00:35.413Z,45.23
2019-01-31T22:03:04.652Z,44.73
2019-01-31T22:05:33.735Z,44.10
2019-01-31T22:08:02.847Z,45.30
2019-01-31T22:10:31.955Z,41.67
2019-01-31T22:13:02.976Z,43.13
2019-01-31T22:15:31.177Z,41.57
2019-01-31T22:18:00.795Z,42.70
2019-01-31T22:20:29.734Z,43.40
2019-01-31T22:22:58.863Z,45.47
2019-01-31T22:25:27.986Z,42.30
2019-01-31T22:27:57.134Z,43.93
2019-01-31T22:30:28.670Z,45.43
2019-01-31T22:32:57.717Z,50.63
2019-01-31T22:35:26.754Z,50.75
2019-01-31T22:37:55.895Z,42.70
2019-01-31T22:40:25.015Z,41.13
2019-01-31T22:42:54.052Z,42.93
2019-01-31T22:45:23.251Z,42.43
2019-01-31T22:47:55.461Z,40.07
2019-01-31T22:50:24.633Z,38.93
2019-01-31T22:52:53.730Z,36.60
2019-01-31T22:55:24.034Z,36.00
2019-01-31T22:57:53.149Z,35.30
2019-01-31T23:00:26.913Z,35.70
2019-01-31T23:02:56.062Z,35.50
2019-01-31T23:05:25.263Z,40.10
2019-01-31T23:07:54.448Z,33.87
2019-01-31T23:10:23.836Z,34.43
2019-01-31T23:12:53.032Z,30.77
2019-01-31T23:15:22.077Z,32.80
2019-01-31T23:17:51.186Z,31.87
2019-01-31T23:20:20.394Z,33.37
2019-01-31T23:22:49.423Z,30.60
2019-01-31T23:25:18.556Z,30.07
2019-01-31T23:27:50.685Z,28.10
2019-01-31T23:30:19.868Z,28.90
2019-01-31T23:32:48.857Z,29.10
2019-01-31T23:35:18.118Z,28.57
2019-01-31T23:37:47.116Z,31.93
2019-01-31T23:40:19.094Z,29.83
2019-01-31T23:42:48.214Z,29.10
2019-01-31T23:45:17.384Z,28.93
2019-01-31T23:47:49.036Z,30.07
2019-01-31T23:50:15.534Z,27.90
2019-01-31T23:52:44.617Z,27.30
2019-01-31T23:55:13.768Z,28.87
2019-01-31T23:57:42.904Z,26.27
